Time;durP1;ratioP1;P1;durP2;ratioP2;P2;SDS_P1;SDS_P2;PMS_P1;PMS_P2;Temp;Humidity;BMP_temperature;BMP_pressure;BME280_temperature;BME280_humidity;BME280_pressure;Samples;Min_cycle;Max_cycle;Signal;HPM_P1;HPM_P2
2020/12/24 00:10:45;;;;;;;9.45;8.05;;;;;;;10.15;70.22;99722.69;4310411;33;34616;-90
2020/12/24 00:14:04;;;;;;;21.48;9.45;;;;;;;10.17;69.76;99722.50;4311111;33;33651;-90
2020/12/24 00:17:41;;;;;;;11.95;9.55;;;;;;;10.23;69.58;99711.31;4335744;33;33448;-87
2020/12/24 00:48:01;;;;;;;10.93;7.78;;;;;;;10.40;67.93;99683.97;4250875;33;34223;-90
2020/12/24 00:50:45;;;;;;;;;;;;;;;;;;;;;
2020/12/24 01:00:48;;;;;;;12.20;8.75;;;;;;;10.14;68.65;99693.56;4306141;33;34177;-87
2020/12/24 01:11:19;;;;;;;12.90;8.13;;;;;;;10.16;68.38;99710.22;4309078;33;32732;-90
2020/12/24 01:18:19;;;;;;;18.10;8.18;;;;;;;9.76;70.08;99714.88;4336287;33;34908;-90
2020/12/24 01:33:52;;;;;;;16.92;8.48;;;;;;;9.98;69.21;99710.09;4313915;33;32781;-90
2020/12/24 01:40:45;;;;;;;12.02;9.32;;;;;;;9.86;69.96;99687.31;4306152;33;34021;-90
2020/12/24 01:43:44;;;;;;;13.73;8.38;;;;;;;9.91;69.66;99679.75;4328289;33;34037;-89
2020/12/24 01:47:45;;;;;;;10.30;6.43;;;;;;;10.07;69.23;99680.03;4339490;33;31818;-90
2020/12/24 01:57:40;;;;;;;20.77;9.77;;;;;;;9.86;70.14;99679.34;4321610;33;33873;-90
2020/12/24 02:04:22;;;;;;;13.32;9.90;;;;;;;9.73;70.55;99665.50;4343279;33;34199;-89
2020/12/24 02:07:33;;;;;;;12.57;7.10;;;;;;;9.84;70.24;99669.84;4326706;33;35033;-90
2020/12/24 02:11:08;;;;;;;14.07;9.10;;;;;;;9.91;69.96;99660.31;4311338;33;33215;-89
2020/12/24 02:13:30;;;;;;;11.80;6.57;;;;;;;10.13;69.42;99655.53;4302297;33;32209;-91
2020/12/24 02:16:50;;;;;;;12.60;7.60;;;;;;;10.05;69.71;99666.03;4295402;33;34338;-90
2020/12/24 02:30:30;;;;;;;13.80;6.37;;;;;;;9.52;72.04;99624.16;4300758;33;32871;-90
2020/12/24 02:33:06;;;;;;;7.18;5.45;;;;;;;9.51;72.04;99620.69;4312139;33;34110;-89
2020/12/24 02:40:27;;;;;;;11.05;6.80;;;;;;;8.83;75.03;99622.63;4274194;33;33539;-90
2020/12/24 02:56:00;;;;;;;;;;;;;;;9.49;72.54;99613.81;4334405;33;33628;-90
2020/12/24 03:02:49;;;;;;;8.13;6.47;;;;;;;9.30;73.30;99600.56;4334700;33;34917;-90
2020/12/24 03:09:38;;;;;;;9.30;5.22;;;;;;;9.11;74.10;99587.31;4324154;33;34568;-88
2020/12/24 03:13:09;;;;;;;8.90;8.00;;;;;;;9.17;73.81;99584.09;4312488;33;34603;-90
2020/12/24 03:16:08;;;;;;;6.20;5.00;;;;;;;9.34;73.18;99578.91;4287822;33;33497;-89
2020/12/24 03:19:01;;;;;;;7.12;6.37;;;;;;;9.61;72.15;99578.16;4302929;33;35332;-90
2020/12/24 03:44:26;;;;;;;6.78;5.47;;;;;;;9.56;71.37;99546.72;4295634;33;33303;-91
2020/12/24 03:54:59;;;;;;;4.57;3.70;;;;;;;9.66;70.49;99546.69;4272109;33;35189;-90
2020/12/24 04:01:35;;;;;;;9.75;6.55;;;;;;;9.23;72.05;99539.25;4273579;33;33155;-90
2020/12/24 04:10:54;;;;;;;9.35;6.18;;;;;;;9.55;71.07;99529.09;4273647;33;32659;-90
2020/12/24 04:14:17;;;;;;;6.72;6.18;;;;;;;9.67;70.43;99529.78;4273811;33;33243;-92
2020/12/24 04:26:58;;;;;;;6.47;4.67;;;;;;;8.87;73.11;99484.25;4320453;33;32777;-91
2020/12/24 04:30:42;;;;;;;10.30;5.28;;;;;;;8.32;75.38;99481.47;4329072;33;35792;-90
2020/12/24 04:34:09;;;;;;;9.43;6.05;;;;;;;8.29;75.64;99492.34;4245314;33;33919;-90
2020/12/24 04:52:59;;;;;;;15.65;6.68;;;;;;;8.86;73.49;99490.56;4287840;33;32317;-89
2020/12/24 05:03:28;;;;;;;7.87;5.32;;;;;;;9.16;72.11;99493.03;4304930;33;32291;-84
2020/12/24 05:06:17;;;;;;;9.10;6.80;;;;;;;9.29;71.41;99476.78;4280913;33;34083;-83
2020/12/24 05:12:40;;;;;;;5.93;5.43;;;;;;;9.21;71.42;99458.09;4312896;33;34984;-90
2020/12/24 05:16:05;;;;;;;8.77;6.35;;;;;;;9.26;71.30;99461.16;4307691;33;34022;-89
2020/12/24 05:22:14;;;;;;;11.27;7.32;;;;;;;9.39;70.85;99467.81;4331302;33;34208;-90
2020/12/24 05:29:31;;;;;;;7.50;6.05;;;;;;;9.21;71.29;99463.41;4333159;33;33627;-90
2020/12/24 05:31:53;;;;;;;6.68;4.53;;;;;;;9.27;71.08;99473.44;4271889;33;34057;-90
2020/12/24 05:35:35;;;;;;;8.68;6.40;;;;;;;9.52;70.27;99481.59;4294123;33;33897;-89
2020/12/24 05:44:57;;;;;;;8.38;5.40;;;;;;;9.58;69.86;99464.25;4230463;33;32261;-91
2020/12/24 05:51:26;;;;;;;10.07;7.12;;;;;;;9.57;69.68;99452.81;4293919;33;33802;-90
2020/12/24 05:54:45;;;;;;;10.98;7.12;;;;;;;9.66;69.38;99446.59;4282593;33;33063;-90
2020/12/24 05:57:23;;;;;;;23.92;11.27;;;;;;;9.39;70.08;99443.09;4293024;33;33476;-91
2020/12/24 06:11:23;;;;;;;5.20;4.72;;;;;;;9.90;68.33;99425.62;4271521;33;33887;-89
2020/12/24 06:17:59;;;;;;;13.60;8.30;;;;;;;9.45;70.16;99423.94;4314643;33;33999;-90
2020/12/24 06:21:14;;;;;;;9.23;7.32;;;;;;;9.50;69.91;99421.66;4314358;33;32495;-89
2020/12/24 06:33:49;;;;;;;;;;;;;;;;;;;;;
2020/12/24 06:46:28;;;;;;;;;;;;;;;;;;;;;
2020/12/24 06:56:52;;;;;;;6.87;6.22;;;;;;;9.75;68.79;99421.78;4331063;32;33083;-90
2020/12/24 07:00:55;;;;;;;10.60;8.20;;;;;;;9.75;68.86;99421.78;4291379;33;33631;-89
2020/12/24 07:04:52;;;;;;;10.63;7.40;;;;;;;9.69;69.60;99417.09;4329464;32;33482;-91
2020/12/24 07:08:07;;;;;;;9.77;7.05;;;;;;;9.63;69.99;99425.66;4303429;33;34481;-90
2020/12/24 07:18:29;;;;;;;7.22;6.35;;;;;;;9.72;70.10;99419.44;4347815;32;32136;-91
2020/12/24 07:28:03;;;;;;;8.68;7.82;;;;;;;9.32;72.08;99420.75;4335495;33;33263;-90
2020/12/24 07:35:15;;;;;;;9.25;6.12;;;;;;;9.67;70.95;99412.91;4319410;33;33921;-90
2020/12/24 07:48:06;;;;;;;;;;;;;;;;;;;;;
2020/12/24 08:02:04;;;;;;;12.60;6.55;;;;;;;9.42;72.80;99398.50;4288199;33;35340;-90
2020/12/24 08:31:57;;;;;;;;;;;;;;;;;;;;;
2020/12/24 08:35:31;;;;;;;8.75;7.72;;;;;;;8.98;75.64;99340.84;4308041;33;33491;-89
2020/12/24 08:45:52;;;;;;;11.10;5.55;;;;;;;8.56;77.92;99360.78;4309226;33;33207;-89
2020/12/24 08:53:23;;;;;;;9.75;6.72;;;;;;;8.44;78.42;99361.91;4319850;33;33131;-88
2020/12/24 08:56:55;;;;;;;12.10;6.35;;;;;;;8.77;77.34;99368.53;4335234;33;34918;-90
2020/12/24 09:00:01;;;;;;;9.57;8.40;;;;;;;8.91;76.81;99370.75;4347794;33;34120;-89
2020/12/24 09:15:36;;;;;;;;;;;;;;;9.50;74.64;99371.19;4348542;33;34126;-91
2020/12/24 09:30:05;;;;;;;9.68;6.85;;;;;;;9.68;74.09;99334.91;4324203;33;32990;-90
2020/12/24 09:33:14;;;;;;;10.38;6.15;;;;;;;9.99;73.09;99331.75;4333947;33;32494;-91
2020/12/24 09:35:57;;;;;;;9.13;7.70;;;;;;;10.13;72.51;99333.06;4330118;33;33771;-90
2020/12/24 09:39:08;;;;;;;8.55;6.05;;;;;;;10.09;73.50;99331.72;4315338;33;33774;-91
2020/12/24 09:55:45;;;;;;;;;;;;;;;;;;;;;
2020/12/24 09:58:38;;;;;;;10.30;6.55;;;;;;;10.88;71.05;99288.06;4315110;33;33600;-90
2020/12/24 10:05:21;;;;;;;7.22;5.28;;;;;;;11.12;69.58;99304.97;4315243;33;33187;-89
2020/12/24 10:15:34;;;;;;;8.05;4.30;;;;;;;11.26;68.57;99298.22;4342363;33;36137;-90
2020/12/24 10:19:11;;;;;;;10.23;5.10;;;;;;;11.26;68.36;99290.22;4319725;33;33638;-90
2020/12/24 10:25:59;;;;;;;4.53;4.05;;;;;;;11.31;68.99;99283.44;4349310;33;34260;-90
2020/12/24 10:33:00;;;;;;;10.70;4.95;;;;;;;11.48;69.00;99282.47;4285516;33;34330;-91
2020/12/24 10:39:11;;;;;;;;;;;;;;;;;;;;;
2020/12/24 10:42:33;;;;;;;8.02;5.37;;;;;;;11.90;67.96;99243.31;4320511;33;33448;-90
2020/12/24 10:45:47;;;;;;;6.82;4.75;;;;;;;11.99;68.25;99250.31;4323497;33;34019;-91
2020/12/24 10:49:12;;;;;;;6.72;6.05;;;;;;;11.95;67.22;99246.28;4317211;33;32713;-90
2020/12/24 11:02:04;;;;;;;5.80;4.40;;;;;;;12.07;66.95;99228.94;4294587;33;34018;-91
2020/12/24 11:15:27;;;;;;;8.93;5.03;;;;;;;12.09;67.60;99206.47;4302851;33;32725;-91
2020/12/24 11:18:12;;;;;;;8.95;3.60;;;;;;;12.25;66.62;99197.59;4276853;33;32848;-91
2020/12/24 11:31:02;;;;;;;7.57;4.55;;;;;;;11.96;68.24;99211.47;4304037;33;32785;-91
2020/12/24 11:33:54;;;;;;;4.25;2.75;;;;;;;12.14;67.68;99200.63;4317247;33;35804;-88
2020/12/24 11:37:15;;;;;;;6.10;4.93;;;;;;;12.28;67.31;99200.78;4305560;33;34297;-91
2020/12/24 11:44:24;;;;;;;3.83;2.62;;;;;;;12.13;66.81;99185.63;4316543;33;32760;-90
2020/12/24 11:47:47;;;;;;;2.75;1.62;;;;;;;11.96;66.26;99174.16;4329951;33;34715;-91
2020/12/24 12:11:15;;;;;;;2.97;2.28;;;;;;;11.23;68.51;99213.34;4330360;33;32722;-91
2020/12/24 12:20:41;;;;;;;2.55;2.25;;;;;;;10.88;67.93;99210.88;4320198;33;32469;-91
2020/12/24 12:46:21;;;;;;;2.12;1.90;;;;;;;11.18;67.97;99232.47;4389486;32;2992984;-91
2020/12/24 12:48:53;;;;;;;2.42;1.40;;;;;;;11.18;67.97;99232.47;4466615;32;33535;-92
2020/12/24 12:51:20;;;;;;;;;;;;;;;10.65;69.10;99231.91;4454013;32;32851;-92
2020/12/24 12:53:50;;;;;;;2.75;1.02;;;;;;;10.15;70.21;99232.72;4454233;32;34220;-92
2020/12/24 12:56:55;;;;;;;7.15;2.58;;;;;;;10.38;69.82;99229.41;4463195;32;33169;-88
2020/12/24 12:59:26;;;;;;;3.20;1.95;;;;;;;10.34;70.17;99225.41;4448586;32;32191;-91
2020/12/24 13:02:39;;;;;;;4.87;2.30;;;;;;;10.55;70.05;99220.53;4462513;32;33116;-92
2020/12/24 13:05:12;;;;;;;1.48;1.37;;;;;;;10.38;71.14;99228.59;4459558;32;35223;-91
2020/12/24 13:07:41;;;;;;;1.30;1.20;;;;;;;10.25;72.01;99222.84;4471723;32;33976;-92
2020/12/24 13:10:10;;;;;;;2.70;1.30;;;;;;;10.32;71.57;99226.53;4458363;32;33476;-91
2020/12/24 13:12:38;;;;;;;2.78;1.80;;;;;;;10.44;71.30;99226.13;4469711;32;33581;-89
2020/12/24 13:15:26;;;;;;;3.20;1.27;;;;;;;10.21;72.17;99217.00;4462960;32;33891;-91
2020/12/24 13:17:54;;;;;;;;;;;;;;;10.30;72.08;99204.59;4472732;32;33214;-91
2020/12/24 13:20:27;;;;;;;2.05;1.10;;;;;;;10.40;72.42;99202.66;4474221;32;33190;-91
2020/12/24 13:22:55;;;;;;;;;;;;;;;10.53;72.09;99206.56;4472527;32;34029;-91
2020/12/24 13:25:24;;;;;;;5.28;2.22;;;;;;;10.61;71.59;99200.44;4458948;32;33808;-91
2020/12/24 13:28:19;;;;;;;2.65;2.05;;;;;;;10.74;71.30;99203.53;4470668;32;32835;-91
2020/12/24 13:30:50;;;;;;;5.37;3.00;;;;;;;11.00;70.31;99196.28;4458706;32;32157;-90
2020/12/24 13:33:41;;;;;;;2.78;2.10;;;;;;;10.67;71.31;99203.31;4462086;32;32926;-91
2020/12/24 13:36:11;;;;;;;2.22;1.45;;;;;;;10.74;71.62;99211.50;4458978;32;34198;-91
2020/12/24 13:38:41;;;;;;;2.62;2.15;;;;;;;10.90;71.17;99215.06;4459253;32;34367;-92
2020/12/24 13:41:11;;;;;;;4.25;2.60;;;;;;;11.04;70.79;99217.09;4461455;32;32678;-92
2020/12/24 13:43:41;;;;;;;2.42;2.22;;;;;;;10.96;71.11;99218.91;4475481;32;34796;-91
2020/12/24 13:46:15;;;;;;;1.55;1.45;;;;;;;11.00;70.72;99223.75;4444244;32;33544;-92
2020/12/24 13:48:46;;;;;;;3.37;2.12;;;;;;;11.20;70.05;99235.78;4463911;32;33375;-91
2020/12/24 13:51:14;;;;;;;4.75;3.28;;;;;;;10.87;71.09;99233.19;4446654;32;33075;-91
2020/12/24 13:53:45;;;;;;;2.50;1.98;;;;;;;11.06;70.28;99224.94;4450010;32;34126;-92
2020/12/24 13:56:14;;;;;;;;;;;;;;;11.09;70.02;99233.44;4443280;32;34268;-91
2020/12/24 13:58:49;;;;;;;1.83;1.52;;;;;;;11.44;68.86;99241.19;4460249;32;33324;-92
2020/12/24 14:01:18;;;;;;;2.78;1.85;;;;;;;10.95;70.59;99241.19;4462517;32;33058;-91
2020/12/24 14:03:50;;;;;;;2.28;2.12;;;;;;;11.22;69.50;99243.62;4449821;32;32809;-92
2020/12/24 14:07:03;;;;;;;3.87;1.77;;;;;;;11.35;69.06;99237.66;4375094;32;35483;-91
2020/12/24 14:09:32;;;;;;;3.47;2.35;;;;;;;11.33;69.21;99249.47;4364160;32;33742;-90
2020/12/24 14:12:07;;;;;;;3.65;2.10;;;;;;;11.33;68.98;99257.47;4380364;32;32322;-91
2020/12/24 14:14:35;;;;;;;1.65;1.40;;;;;;;11.09;70.00;99257.41;4391736;32;34390;-93
2020/12/24 14:17:03;;;;;;;;;;;;;;;10.73;71.58;99253.22;4380027;32;34390;-91
2020/12/24 14:19:30;;;;;;;1.48;1.33;;;;;;;10.88;70.86;99256.13;4378855;32;35130;-91
2020/12/24 14:22:20;;;;;;;3.42;1.37;;;;;;;10.58;72.24;99248.66;4345130;32;33291;-92
2020/12/24 14:25:00;;;;;;;2.65;2.45;;;;;;;10.50;72.73;99248.59;4356029;32;33754;-92
2020/12/24 14:27:38;;;;;;;3.40;2.87;;;;;;;10.46;73.07;99245.41;4354990;32;35108;-91
2020/12/24 14:30:06;;;;;;;2.60;2.08;;;;;;;10.26;73.89;99254.59;4369918;32;33835;-91
2020/12/24 14:32:35;;;;;;;2.70;2.47;;;;;;;10.16;74.61;99250.34;4368157;32;31730;-93
2020/12/24 14:35:02;;;;;;;2.90;2.37;;;;;;;10.24;74.32;99259.25;4367852;32;33369;-91
2020/12/24 14:37:30;;;;;;;3.05;2.75;;;;;;;10.35;73.97;99256.31;4392945;32;35284;-91
2020/12/24 14:40:01;;;;;;;2.10;1.85;;;;;;;10.14;74.94;99252.34;4390678;32;34155;-91
2020/12/24 14:42:44;;;;;;;1.62;1.52;;;;;;;10.28;74.29;99254.44;4354029;32;32972;-90
2020/12/24 14:45:30;;;;;;;1.83;1.73;;;;;;;10.22;74.59;99258.56;4379000;32;34117;-91
2020/12/24 14:48:00;;;;;;;4.45;3.42;;;;;;;10.11;74.95;99257.97;4365946;32;34818;-91
2020/12/24 14:50:52;;;;;;;2.25;2.03;;;;;;;10.02;75.64;99249.06;4376880;32;34598;-91
2020/12/24 14:53:20;;;;;;;3.05;2.37;;;;;;;10.13;75.23;99246.19;4380168;32;33611;-91
2020/12/24 14:56:31;;;;;;;4.43;3.08;;;;;;;10.18;75.21;99253.72;4384891;32;33458;-92
2020/12/24 14:58:58;;;;;;;3.35;3.00;;;;;;;10.21;74.91;99256.88;4366885;32;34764;-91
2020/12/24 15:01:27;;;;;;;3.12;2.70;;;;;;;10.40;74.31;99264.66;4367664;32;33725;-90
2020/12/24 15:03:55;;;;;;;4.60;3.08;;;;;;;10.32;74.73;99261.09;4352804;32;32678;-91
2020/12/24 15:06:22;;;;;;;3.13;2.57;;;;;;;10.56;73.67;99255.97;4352376;32;33893;-91
2020/12/24 15:09:17;;;;;;;2.95;2.75;;;;;;;10.61;73.48;99258.97;4359148;32;35219;-91
2020/12/24 15:11:45;;;;;;;3.10;2.28;;;;;;;10.55;73.57;99262.25;4366546;32;34886;-92
2020/12/24 15:14:33;;;;;;;1.62;1.50;;;;;;;10.68;72.99;99246.72;4376358;32;33715;-90
2020/12/24 15:17:06;;;;;;;3.40;1.87;;;;;;;10.90;72.11;99243.50;4377701;32;32646;-92
2020/12/24 15:19:34;;;;;;;3.47;2.28;;;;;;;10.94;71.81;99243.00;4377207;32;35038;-92
2020/12/24 15:22:23;;;;;;;2.33;2.20;;;;;;;10.63;73.00;99241.88;4364477;32;33235;-92
2020/12/24 15:24:53;;;;;;;3.53;2.17;;;;;;;11.00;71.69;99250.38;4365417;32;32856;-92
2020/12/24 15:27:23;;;;;;;5.68;3.40;;;;;;;11.13;71.04;99253.41;4365022;32;32988;-92
2020/12/24 15:29:54;;;;;;;4.50;2.10;;;;;;;11.00;71.12;99260.16;4377283;32;35824;-92
2020/12/24 15:32:26;;;;;;;3.92;2.85;;;;;;;10.99;71.48;99270.00;4386870;32;33911;-91
2020/12/24 15:34:54;;;;;;;4.22;3.85;;;;;;;10.88;71.60;99261.44;4355527;32;33299;-87
2020/12/24 15:37:21;;;;;;;3.67;3.37;;;;;;;10.95;71.14;99276.63;4380362;32;33856;-93
2020/12/24 15:39:53;;;;;;;4.03;2.40;;;;;;;11.02;71.10;99275.00;4392980;32;34396;-93
2020/12/24 15:42:26;;;;;;;2.60;2.15;;;;;;;11.00;71.12;99276.97;4383051;32;34289;-93
2020/12/24 15:44:57;;;;;;;3.15;2.50;;;;;;;10.97;71.22;99272.00;4378219;32;31646;-93
2020/12/24 15:47:25;;;;;;;3.33;1.95;;;;;;;10.95;71.25;99270.47;4378291;32;34285;-92
2020/12/24 15:49:53;;;;;;;7.65;3.12;;;;;;;11.18;70.35;99267.09;4381157;32;34108;-93
2020/12/24 15:52:38;;;;;;;6.37;3.12;;;;;;;11.23;69.91;99267.41;4406786;32;35486;-94
2020/12/24 15:55:05;;;;;;;3.22;2.92;;;;;;;11.25;69.97;99273.44;4395354;32;32853;-94
2020/12/24 15:57:34;;;;;;;2.83;2.55;;;;;;;11.16;70.28;99258.44;4408178;32;33776;-95
2020/12/24 16:00:03;;;;;;;3.00;2.50;;;;;;;11.18;70.13;99255.59;4399803;32;35484;-94
2020/12/24 16:02:45;;;;;;;2.90;2.30;;;;;;;11.17;70.17;99251.25;4387200;32;33851;-93
2020/12/24 16:05:39;;;;;;;5.20;4.10;;;;;;;11.32;69.55;99249.66;4379378;32;33446;-93
2020/12/24 16:08:08;;;;;;;2.08;1.48;;;;;;;11.31;69.52;99251.47;4391629;32;33524;-93
2020/12/24 16:10:42;;;;;;;2.90;2.62;;;;;;;11.34;69.38;99243.19;4390790;32;35527;-92
2020/12/24 16:13:28;;;;;;;5.18;2.65;;;;;;;11.16;69.92;99247.78;4373465;32;32994;-92
2020/12/24 16:16:14;;;;;;;5.15;3.42;;;;;;;11.18;69.82;99247.59;4375245;32;33561;-92
2020/12/24 16:18:47;;;;;;;3.60;2.72;;;;;;;11.07;70.17;99254.06;4373289;32;33840;-94
2020/12/24 16:21:15;;;;;;;3.47;2.58;;;;;;;11.15;70.16;99258.56;4370728;32;34618;-91
2020/12/24 16:23:42;;;;;;;3.47;2.58;;;;;;;11.13;70.04;99245.41;4385066;32;34311;-92
2020/12/24 16:26:12;;;;;;;4.03;3.50;;;;;;;11.17;69.89;99245.94;4386461;32;32788;-90
2020/12/24 16:29:11;;;;;;;3.50;3.20;;;;;;;11.26;69.51;99244.97;4383371;32;34359;-91
2020/12/24 16:31:39;;;;;;;5.62;2.95;;;;;;;11.08;69.96;99250.41;4386910;32;34448;-93
2020/12/24 16:34:07;;;;;;;3.42;3.15;;;;;;;11.18;69.81;99253.78;4370841;32;33361;-90
2020/12/24 16:36:56;;;;;;;5.47;2.70;;;;;;;11.21;69.71;99247.28;4387068;32;33612;-90
2020/12/24 16:39:27;;;;;;;3.15;2.47;;;;;;;11.06;70.26;99254.22;4374585;32;33597;-90
2020/12/24 16:42:09;;;;;;;4.37;3.35;;;;;;;11.20;69.82;99250.91;4415494;32;34391;-89
2020/12/24 16:44:54;;;;;;;3.40;2.70;;;;;;;11.12;69.86;99242.94;4399397;32;33829;-91
2020/12/24 16:47:39;;;;;;;3.70;2.55;;;;;;;11.18;69.61;99240.47;4375348;32;32204;-90
2020/12/24 16:50:10;;;;;;;3.08;2.78;;;;;;;11.19;69.52;99236.78;4384641;32;35044;-89
2020/12/24 16:53:00;;;;;;;4.25;3.85;;;;;;;11.26;69.25;99231.66;4384642;32;33958;-91
2020/12/24 16:55:35;;;;;;;3.87;2.35;;;;;;;11.32;68.97;99231.81;4387811;32;34559;-87
2020/12/24 16:58:06;;;;;;;8.00;3.30;;;;;;;11.39;68.52;99231.03;4373792;32;31885;-91
2020/12/24 17:00:34;;;;;;;3.67;2.92;;;;;;;11.41;68.40;99241.50;4398295;32;33500;-91
2020/12/24 17:03:24;;;;;;;3.33;1.90;;;;;;;11.64;67.42;99238.09;4376893;32;35023;-90
2020/12/24 17:06:06;;;;;;;2.05;1.92;;;;;;;11.80;66.79;99238.13;4413216;32;35863;-92
2020/12/24 17:08:52;;;;;;;7.82;4.12;;;;;;;11.87;66.33;99239.13;4385530;32;33955;-91
2020/12/24 17:11:33;;;;;;;3.47;2.90;;;;;;;11.40;67.96;99251.34;4371625;32;34040;-92
2020/12/24 17:14:15;;;;;;;4.85;3.45;;;;;;;11.23;68.68;99254.09;4365527;32;33851;-93
2020/12/24 17:16:57;;;;;;;2.12;1.95;;;;;;;11.26;68.71;99258.28;4389944;32;33003;-92
2020/12/24 17:19:26;;;;;;;2.97;1.60;;;;;;;11.26;68.72;99272.44;4373374;32;31783;-91
2020/12/24 17:21:55;;;;;;;;;;;;;;;10.99;69.58;99277.13;4364732;32;33643;-92
2020/12/24 17:24:24;;;;;;;5.40;3.00;;;;;;;10.81;70.26;99282.53;4388860;32;35058;-92
2020/12/24 17:27:13;;;;;;;3.92;1.77;;;;;;;10.64;70.63;99282.59;4379119;32;34064;-92
2020/12/24 17:29:41;;;;;;;2.30;2.10;;;;;;;10.64;70.79;99283.44;4364380;32;33133;-90
2020/12/24 17:32:28;;;;;;;2.05;1.48;;;;;;;10.24;72.20;99274.34;4367827;32;33075;-91
2020/12/24 17:35:17;;;;;;;2.72;1.98;;;;;;;10.52;71.49;99274.06;4388498;32;33985;-88
2020/12/24 17:38:10;;;;;;;2.90;1.85;;;;;;;10.23;72.30;99281.50;4373233;32;34411;-91
2020/12/24 17:40:51;;;;;;;1.70;1.17;;;;;;;10.47;71.32;99267.53;4389402;32;33500;-89
2020/12/24 17:43:59;;;;;;;2.25;1.67;;;;;;;9.90;72.42;99260.91;4381043;32;32903;-89
2020/12/24 17:46:28;;;;;;;2.53;2.25;;;;;;;10.37;71.26;99269.47;4370512;32;35157;-91
2020/12/24 17:49:10;;;;;;;1.70;1.55;;;;;;;10.21;71.05;99262.19;4352573;32;34837;-92
2020/12/24 17:51:39;;;;;;;4.70;2.28;;;;;;;10.22;71.44;99255.06;4363673;32;33491;-92
2020/12/24 17:54:16;;;;;;;1.77;1.20;;;;;;;10.15;71.18;99257.50;4356662;32;33045;-90
2020/12/24 17:57:03;;;;;;;1.90;1.77;;;;;;;10.23;70.69;99252.25;4367668;32;34078;-93
2020/12/24 18:00:08;;;;;;;1.55;1.42;;;;;;;10.28;70.50;99249.94;4340624;33;35713;-92
2020/12/24 18:02:35;;;;;;;3.42;1.10;;;;;;;10.63;69.20;99259.63;4317371;33;32337;-91
2020/12/24 18:05:06;;;;;;;5.07;2.70;;;;;;;10.66;69.30;99262.81;4330307;33;32591;-90
2020/12/24 18:07:56;;;;;;;3.35;3.05;;;;;;;10.66;69.35;99254.03;4332525;33;34115;-92
2020/12/24 18:10:47;;;;;;;8.05;4.80;;;;;;;10.86;69.01;99245.63;4334885;33;35085;-92
2020/12/24 18:13:49;;;;;;;4.70;3.83;;;;;;;11.10;68.26;99234.25;4355768;32;33573;-91
2020/12/24 18:16:31;;;;;;;5.32;3.70;;;;;;;10.70;69.88;99231.41;4385183;32;33234;-92
2020/12/24 18:19:15;;;;;;;3.42;3.03;;;;;;;10.94;68.98;99240.34;4374514;32;34821;-93
2020/12/24 18:22:06;;;;;;;3.97;3.58;;;;;;;10.89;69.04;99253.31;4355400;32;33379;-92
2020/12/24 18:24:39;;;;;;;4.00;2.53;;;;;;;10.87;69.04;99255.28;4387100;32;33397;-92
2020/12/24 18:27:10;;;;;;;3.50;3.20;;;;;;;11.05;68.47;99261.34;4394225;32;33951;-93
2020/12/24 18:29:55;;;;;;;2.83;2.55;;;;;;;11.05;68.37;99261.34;4384305;32;34191;-90
2020/12/24 18:32:25;;;;;;;;;;;;;;;11.39;66.36;99243.50;4360366;32;33303;-90
2020/12/24 18:35:13;;;;;;;4.18;2.70;;;;;;;10.95;67.71;99252.66;4363998;32;32233;-92
2020/12/24 18:37:45;;;;;;;7.60;4.10;;;;;;;11.15;66.94;99247.94;4387433;32;33159;-92
2020/12/24 18:40:32;;;;;;;4.28;2.85;;;;;;;11.20;66.73;99261.56;4373988;32;33953;-93
2020/12/24 18:43:00;;;;;;;6.15;3.65;;;;;;;10.87;67.89;99265.09;4361433;32;33514;-90
2020/12/24 18:45:42;;;;;;;5.50;3.58;;;;;;;11.06;67.15;99267.53;4381889;32;32752;-92
2020/12/24 18:48:52;;;;;;;8.13;3.42;;;;;;;10.96;67.66;99264.97;4363940;32;33232;-92
2020/12/24 18:51:39;;;;;;;4.53;2.65;;;;;;;10.95;67.77;99276.63;4363874;32;35929;-92
2020/12/24 18:54:35;;;;;;;4.50;2.05;;;;;;;10.85;67.66;99278.56;4382484;32;33910;-93
2020/12/24 18:57:04;;;;;;;3.53;2.37;;;;;;;10.83;67.96;99277.87;4372671;32;33753;-91
2020/12/24 18:59:33;;;;;;;3.72;2.62;;;;;;;11.08;66.80;99273.50;4359353;32;33860;-92
2020/12/24 19:02:01;;;;;;;2.70;2.37;;;;;;;10.84;67.36;99276.06;4346840;32;35713;-92
2020/12/24 19:04:29;;;;;;;3.55;2.28;;;;;;;10.83;67.49;99271.72;4359017;32;32954;-92
2020/12/24 19:06:56;;;;;;;8.60;5.28;;;;;;;11.06;66.81;99273.69;4364395;32;32887;-91
2020/12/24 19:09:24;;;;;;;;;;;;;;;11.28;65.75;99271.25;4362871;32;33110;-88
2020/12/24 19:12:10;;;;;;;10.45;6.18;;;;;;;10.73;68.22;99263.88;4367458;32;35706;-91
2020/12/24 19:14:46;;;;;;;5.85;4.93;;;;;;;10.71;68.63;99273.00;4367910;32;33957;-91
2020/12/24 19:17:17;;;;;;;12.07;6.70;;;;;;;10.52;68.16;99276.72;4365761;32;32236;-89
2020/12/24 19:19:47;;;;;;;17.27;6.93;;;;;;;10.24;69.41;99279.66;4381177;32;34653;-91
2020/12/24 19:22:23;;;;;;;6.82;3.80;;;;;;;10.28;69.06;99281.03;4366709;32;33730;-93
2020/12/24 19:24:54;;;;;;;7.45;4.10;;;;;;;10.37;68.32;99274.78;4367111;32;33882;-92
2020/12/24 19:27:39;;;;;;;12.70;4.03;;;;;;;10.08;68.63;99271.53;4340844;32;33955;-92
2020/12/24 19:30:11;;;;;;;17.30;10.45;;;;;;;9.83;69.67;99274.97;4353434;32;34651;-89
2020/12/24 19:32:43;;;;;;;13.55;9.63;;;;;;;10.27;68.70;99258.06;4341663;32;34591;-92
2020/12/24 19:35:15;;;;;;;7.25;5.57;;;;;;;10.56;67.87;99240.00;4330278;33;34048;-92
2020/12/24 19:38:05;;;;;;;6.37;5.82;;;;;;;10.52;67.31;99236.81;4375469;32;34805;-93
2020/12/24 19:40:48;;;;;;;7.70;4.47;;;;;;;10.31;68.37;99238.19;4388819;32;33618;-93
2020/12/24 19:43:30;;;;;;;6.32;4.55;;;;;;;10.03;69.65;99244.63;4371261;32;34574;-93
2020/12/24 19:46:13;;;;;;;7.12;4.95;;;;;;;9.56;70.95;99249.28;4359174;32;34421;-93
2020/12/24 19:48:57;;;;;;;7.57;5.30;;;;;;;10.28;68.04;99251.78;4373640;32;33595;-93
2020/12/24 19:51:39;;;;;;;6.50;5.30;;;;;;;10.55;67.57;99255.13;4373125;32;34740;-92
2020/12/24 19:54:21;;;;;;;4.47;3.60;;;;;;;10.42;67.60;99264.50;4347945;32;35181;-91
2020/12/24 19:57:03;;;;;;;4.18;3.30;;;;;;;10.20;68.63;99257.84;4373386;32;34283;-93
2020/12/24 19:59:45;;;;;;;1.12;1.12;;;;;;;10.34;67.76;99248.50;4361620;32;32354;-91
2020/12/24 20:02:27;;;;;;;1.95;1.60;;;;;;;9.95;67.17;99250.66;4358876;32;33075;-94
2020/12/24 20:05:09;;;;;;;2.83;2.25;;;;;;;10.22;66.75;99255.06;4373040;32;34231;-93
2020/12/24 20:07:52;;;;;;;3.87;1.98;;;;;;;10.68;65.67;99244.88;4369886;32;35661;-93
2020/12/24 20:10:34;;;;;;;2.35;2.15;;;;;;;10.24;67.20;99255.72;4356890;32;32749;-93
2020/12/24 20:13:09;;;;;;;2.40;1.27;;;;;;;10.31;67.04;99260.25;4358715;32;33599;-92
2020/12/24 20:15:36;;;;;;;3.15;1.92;;;;;;;10.25;67.58;99258.25;4346875;32;35092;-95
2020/12/24 20:18:20;;;;;;;2.12;0.95;;;;;;;10.12;68.06;99241.03;4355609;32;34652;-93
2020/12/24 20:21:03;;;;;;;1.02;0.98;;;;;;;10.35;66.96;99234.19;4378794;32;33706;-93
2020/12/24 20:23:45;;;;;;;1.48;1.10;;;;;;;10.53;66.21;99221.69;4358968;32;33985;-90
2020/12/24 20:26:30;;;;;;;2.00;1.35;;;;;;;10.19;67.61;99218.16;4335354;32;35313;-91
2020/12/24 20:29:12;;;;;;;4.28;1.77;;;;;;;10.14;67.31;99229.25;4356024;32;33895;-93
2020/12/24 20:31:54;;;;;;;2.58;2.10;;;;;;;10.24;67.01;99234.47;4343717;32;32532;-92
2020/12/24 20:34:36;;;;;;;12.35;1.87;;;;;;;10.21;67.11;99243.56;4354237;32;33896;-92
2020/12/24 20:37:18;;;;;;;2.53;1.35;;;;;;;10.11;67.29;99245.50;4357848;32;34729;-91
2020/12/24 20:40:00;;;;;;;2.67;1.87;;;;;;;9.94;68.12;99258.78;4366847;32;33101;-92
2020/12/24 20:42:44;;;;;;;0.62;0.62;;;;;;;10.26;66.95;99233.31;4369461;32;33360;-91
2020/12/24 20:45:37;;;;;;;2.00;1.75;;;;;;;9.94;68.05;99230.38;4400288;31;20840;-90
2020/12/24 20:48:19;;;;;;;2.53;1.87;;;;;;;10.03;67.51;99228.66;4359475;32;34068;-93
2020/12/24 20:51:02;;;;;;;1.17;0.80;;;;;;;10.11;66.92;99223.41;4364559;32;34176;-94
2020/12/24 20:53:45;;;;;;;1.45;1.33;;;;;;;9.93;67.68;99217.25;4328973;33;32479;-89
2020/12/24 20:56:27;;;;;;;2.28;1.62;;;;;;;9.82;68.52;99226.28;4396478;32;34258;-93
2020/12/24 20:59:09;;;;;;;3.45;1.62;;;;;;;9.76;68.62;99226.94;4371820;32;34400;-94
2020/12/24 21:01:40;;;;;;;2.45;1.45;;;;;;;9.57;69.63;99229.75;4361362;32;33820;-94
2020/12/24 21:04:22;;;;;;;1.48;1.35;;;;;;;9.54;69.78;99231.87;4388550;32;32374;-92
2020/12/24 21:07:04;;;;;;;3.05;1.35;;;;;;;8.88;71.64;99236.59;4374977;32;33486;-92
2020/12/24 21:09:32;;;;;;;2.28;0.90;;;;;;;9.12;71.21;99234.25;4369972;32;33937;-94
2020/12/24 21:12:01;;;;;;;;;;;;;;;8.97;72.00;99237.53;4368625;32;33142;-89
2020/12/24 21:14:28;;;;;;;;;;;;;;;9.16;71.45;99246.22;4390152;32;32090;-91